createdAt,value
2022-10-20T00:04:35.342Z,13.97
2022-10-20T00:09:38.326Z,14.43
2022-10-20T00:14:40.994Z,15.90
2022-10-20T00:19:46.905Z,15.90
2022-10-20T00:24:51.276Z,16.53
2022-10-20T00:29:54.351Z,14.77
2022-10-20T00:34:57.140Z,15.23
2022-10-20T00:39:59.945Z,16.67
2022-10-20T00:45:02.736Z,16.13
2022-10-20T00:50:19.588Z,15.97
2022-10-20T00:55:28.974Z,16.33
2022-10-20T01:00:32.026Z,14.47
2022-10-20T01:05:34.881Z,16.00
2022-10-20T01:10:49.516Z,17.53
2022-10-20T01:16:02.203Z,18.50
2022-10-20T01:21:33.115Z,15.83
2022-10-20T01:26:49.802Z,15.23
2022-10-20T01:32:18.903Z,16.43
2022-10-20T01:37:49.328Z,17.07
2022-10-20T01:42:54.962Z,15.67
2022-10-20T01:48:01.189Z,18.10
2022-10-20T01:53:03.983Z,17.73
2022-10-20T01:58:30.839Z,16.53
2022-10-20T02:03:55.527Z,17.87
2022-10-20T02:09:01.224Z,17.30
2022-10-20T02:14:05.567Z,18.57
2022-10-20T02:19:10.581Z,17.17
2022-10-20T02:24:15.905Z,17.73
2022-10-20T02:29:27.013Z,16.17
2022-10-20T02:34:29.966Z,16.70
2022-10-20T02:39:32.270Z,15.80
2022-10-20T02:44:34.893Z,17.53
2022-10-20T02:49:37.854Z,15.90
2022-10-20T02:54:40.923Z,16.33
2022-10-20T02:59:43.245Z,37.83
2022-10-20T03:04:45.557Z,14.90
2022-10-20T03:09:47.803Z,14.73
2022-10-20T03:14:50.206Z,14.60
2022-10-20T03:19:52.494Z,15.37
2022-10-20T03:24:54.745Z,17.60
2022-10-20T03:29:57.090Z,18.17
2022-10-20T03:34:59.357Z,14.40
2022-10-20T03:40:02.511Z,15.60
2022-10-20T03:45:05.500Z,16.77
2022-10-20T03:50:08.498Z,14.97
2022-10-20T03:55:10.793Z,14.53
2022-10-20T04:00:13.767Z,16.07
2022-10-20T04:05:19.141Z,15.43
2022-10-20T04:10:21.438Z,18.77
2022-10-20T04:15:24.294Z,15.87
2022-10-20T04:20:26.720Z,15.67
2022-10-20T04:25:29.023Z,15.60
2022-10-20T04:30:31.391Z,15.73
2022-10-20T04:35:33.780Z,15.67
2022-10-20T04:40:36.109Z,15.93
2022-10-20T04:45:38.591Z,16.80
2022-10-20T04:50:40.938Z,15.40
2022-10-20T04:55:43.767Z,16.63
2022-10-20T05:00:46.114Z,15.33
2022-10-20T05:05:48.478Z,15.83
2022-10-20T05:10:50.760Z,16.37
2022-10-20T05:15:53.495Z,15.83
2022-10-20T05:21:08.370Z,15.70
2022-10-20T05:26:15.804Z,15.27
2022-10-20T05:31:21.700Z,15.47
2022-10-20T05:36:26.739Z,14.97
2022-10-20T05:41:33.409Z,15.67
2022-10-20T05:46:42.707Z,15.73
2022-10-20T05:51:46.681Z,15.83
2022-10-20T05:56:49.028Z,15.57
2022-10-20T06:01:52.792Z,15.40
2022-10-20T06:06:55.943Z,15.43
2022-10-20T06:11:59.681Z,14.37
2022-10-20T06:17:02.053Z,15.23
2022-10-20T06:22:07.066Z,18.07
2022-10-20T06:27:09.453Z,15.23
2022-10-20T06:32:11.747Z,14.67
2022-10-20T06:37:14.217Z,15.73
2022-10-20T06:42:16.598Z,15.17
2022-10-20T06:47:21.938Z,14.60
2022-10-20T06:52:24.338Z,15.13
2022-10-20T06:57:26.614Z,14.23
2022-10-20T07:02:29.112Z,16.13
2022-10-20T07:07:32.282Z,14.33
2022-10-20T07:12:34.914Z,14.53
2022-10-20T07:17:37.592Z,15.13
2022-10-20T07:22:40.070Z,13.73
2022-10-20T07:27:42.417Z,12.77
2022-10-20T07:32:44.697Z,14.13
2022-10-20T07:37:47.567Z,13.70
2022-10-20T07:42:49.861Z,13.00
2022-10-20T07:47:52.293Z,13.50
2022-10-20T07:52:54.728Z,13.30
2022-10-20T07:57:56.977Z,13.67
2022-10-20T08:02:59.228Z,13.10
2022-10-20T08:08:01.831Z,13.93
2022-10-20T08:13:04.143Z,13.53
2022-10-20T08:18:08.142Z,12.23
2022-10-20T08:23:10.423Z,12.00
2022-10-20T08:28:12.778Z,13.13
2022-10-20T08:33:15.054Z,12.23
2022-10-20T08:38:17.385Z,12.67
2022-10-20T08:43:20.010Z,12.57
2022-10-20T08:48:26.741Z,12.13
2022-10-20T08:53:34.279Z,13.03
2022-10-20T08:58:43.387Z,13.07
2022-10-20T09:03:52.929Z,12.43
2022-10-20T09:08:56.460Z,13.00
2022-10-20T09:13:58.853Z,12.77
2022-10-20T09:19:01.979Z,12.63
2022-10-20T09:24:06.269Z,12.17
2022-10-20T09:29:14.392Z,11.50
2022-10-20T09:34:27.275Z,11.43
2022-10-20T09:39:39.937Z,11.77
2022-10-20T09:44:49.283Z,11.60
2022-10-20T09:50:01.790Z,12.17
2022-10-20T09:55:17.010Z,12.20
2022-10-20T10:00:36.423Z,14.23
2022-10-20T10:05:39.833Z,13.93
2022-10-20T10:10:45.437Z,13.37
2022-10-20T10:15:47.993Z,15.97
2022-10-20T10:21:00.896Z,13.50
2022-10-20T10:26:24.738Z,13.57
2022-10-20T10:31:27.482Z,13.63
2022-10-20T10:36:36.861Z,15.37
2022-10-20T10:42:15.013Z,13.80
2022-10-20T10:47:46.759Z,15.50
2022-10-20T10:53:00.104Z,14.70
2022-10-20T10:58:10.024Z,12.87
2022-10-20T11:03:37.680Z,17.13
2022-10-20T11:08:48.267Z,14.63
2022-10-20T11:14:15.699Z,13.17
2022-10-20T11:19:24.869Z,15.90
2022-10-20T11:24:38.576Z,14.17
2022-10-20T11:30:05.272Z,15.57
2022-10-20T11:35:22.450Z,14.93
2022-10-20T11:40:29.506Z,14.43
2022-10-20T11:45:54.750Z,15.33
2022-10-20T11:56:37.607Z,14.83
2022-10-20T12:02:01.783Z,16.93
2022-10-20T12:07:22.275Z,16.37
2022-10-20T12:12:38.808Z,16.50
2022-10-20T12:17:42.578Z,15.50
2022-10-20T12:22:44.906Z,14.67
2022-10-20T12:28:07.641Z,13.33
2022-10-20T12:33:18.578Z,14.80
2022-10-20T12:38:22.467Z,15.47
2022-10-20T12:43:52.932Z,15.03
2022-10-20T12:48:59.930Z,14.93
2022-10-20T12:54:23.047Z,14.33
2022-10-20T12:59:29.227Z,15.00
2022-10-20T13:04:59.251Z,15.07
2022-10-20T13:10:04.203Z,16.03
2022-10-20T13:15:12.898Z,14.73
2022-10-20T13:20:46.362Z,14.23
2022-10-20T13:25:53.660Z,17.57
2022-10-20T13:30:58.356Z,15.67
2022-10-20T13:36:26.481Z,15.07
2022-10-20T13:41:43.497Z,16.77
2022-10-20T13:46:53.980Z,13.37
2022-10-20T13:52:03.807Z,13.57
2022-10-20T13:57:08.173Z,13.10
2022-10-20T14:02:25.552Z,12.53
2022-10-20T14:07:37.028Z,12.93
2022-10-20T14:12:39.912Z,13.83
2022-10-20T14:17:42.641Z,13.90
2022-10-20T14:22:46.021Z,13.20
2022-10-20T14:27:51.261Z,11.67
2022-10-20T14:32:54.705Z,14.33
2022-10-20T14:38:06.167Z,13.50
2022-10-20T14:43:47.534Z,14.47
2022-10-20T14:48:54.342Z,12.53
2022-10-20T14:54:20.063Z,12.37
2022-10-20T14:59:30.944Z,12.33
2022-10-20T15:04:36.177Z,12.37
2022-10-20T15:09:42.522Z,12.33
2022-10-20T15:14:48.923Z,11.80
2022-10-20T15:19:51.270Z,11.90
2022-10-20T15:24:53.739Z,10.90
2022-10-20T15:29:56.058Z,12.13
2022-10-20T15:35:04.784Z,11.10
2022-10-20T15:40:09.862Z,13.47
2022-10-20T15:45:19.964Z,11.27
2022-10-20T15:50:27.823Z,9.10
2022-10-20T15:55:37.312Z,9.33
2022-10-20T16:00:39.922Z,9.83
2022-10-20T16:05:42.304Z,8.70
2022-10-20T16:10:44.693Z,9.60
2022-10-20T16:15:47.155Z,8.33
2022-10-20T16:20:49.602Z,8.13
2022-10-20T16:25:52.270Z,8.67
2022-10-20T16:31:09.390Z,7.80
2022-10-20T16:36:14.929Z,9.60
2022-10-20T16:41:18.128Z,33.77
2022-10-20T16:46:20.772Z,12.53
2022-10-20T16:51:23.213Z,8.80
2022-10-20T16:56:26.364Z,11.03
2022-10-20T17:01:28.891Z,9.27
2022-10-20T17:06:31.427Z,9.23
2022-10-20T17:11:33.982Z,9.33
2022-10-20T17:16:39.542Z,7.43
2022-10-20T17:21:41.858Z,8.33
2022-10-20T17:26:44.484Z,9.33
2022-10-20T17:31:46.791Z,6.90
2022-10-20T17:36:49.157Z,7.80
2022-10-20T17:41:51.518Z,8.33
2022-10-20T17:46:53.804Z,6.67
2022-10-20T17:51:56.280Z,8.40
2022-10-20T17:56:59.362Z,6.67
2022-10-20T18:02:04.313Z,10.70
2022-10-20T18:07:06.712Z,10.40
2022-10-20T18:12:09.527Z,9.37
2022-10-20T18:17:11.888Z,9.93
2022-10-20T18:22:14.211Z,9.00
2022-10-20T18:27:16.547Z,9.10
2022-10-20T18:32:18.907Z,9.37
2022-10-20T18:37:21.305Z,9.00
2022-10-20T18:42:23.989Z,8.90
2022-10-20T18:47:26.266Z,19.30
2022-10-20T18:52:28.515Z,14.40
2022-10-20T18:57:33.016Z,10.10
2022-10-20T19:02:37.416Z,9.50
2022-10-20T19:07:41.215Z,8.43
2022-10-20T19:12:43.775Z,7.83
2022-10-20T19:17:46.507Z,10.80
2022-10-20T19:22:48.800Z,8.50
2022-10-20T19:27:51.971Z,14.23
2022-10-20T19:32:54.840Z,12.33
2022-10-20T19:37:57.201Z,7.67
2022-10-20T19:42:59.501Z,6.50
2022-10-20T19:48:02.131Z,5.53
2022-10-20T19:53:05.618Z,8.47
2022-10-20T20:03:12.102Z,8.07
2022-10-20T20:08:14.936Z,9.17
2022-10-20T20:13:17.330Z,9.40
2022-10-20T20:18:20.170Z,9.73
2022-10-20T20:23:26.069Z,13.60
2022-10-20T20:28:37.808Z,8.63
2022-10-20T20:33:40.146Z,8.23
2022-10-20T20:38:42.666Z,8.83
2022-10-20T20:43:45.235Z,10.00
2022-10-20T20:48:47.751Z,8.30
2022-10-20T20:53:50.139Z,8.60
2022-10-20T20:58:55.417Z,10.70
2022-10-20T21:04:01.453Z,12.00
2022-10-20T21:09:05.026Z,9.73
2022-10-20T21:14:07.486Z,10.97
2022-10-20T21:19:10.653Z,10.30
2022-10-20T21:24:13.189Z,9.87
2022-10-20T21:29:17.519Z,9.63
2022-10-20T21:34:19.894Z,10.10
2022-10-20T21:39:22.418Z,9.07
2022-10-20T21:44:24.806Z,10.53
2022-10-20T21:49:27.124Z,8.60
2022-10-20T21:54:29.920Z,8.23
2022-10-20T21:59:32.178Z,9.37
2022-10-20T22:04:34.900Z,11.03
2022-10-20T22:09:37.443Z,10.73
2022-10-20T22:14:42.563Z,10.60
2022-10-20T22:19:47.435Z,11.93
2022-10-20T22:24:49.810Z,10.43
2022-10-20T22:29:54.070Z,11.37
2022-10-20T22:34:59.003Z,11.00
2022-10-20T22:40:01.408Z,13.93
2022-10-20T22:45:04.087Z,13.40
2022-10-20T22:50:06.934Z,11.57
2022-10-20T22:55:09.411Z,11.80
2022-10-20T23:00:12.424Z,10.87
2022-10-20T23:05:14.995Z,9.00
2022-10-20T23:10:17.628Z,4.47
2022-10-20T23:15:20.006Z,5.33
2022-10-20T23:20:22.356Z,4.93
2022-10-20T23:25:24.745Z,4.87
2022-10-20T23:30:27.074Z,7.03
2022-10-20T23:35:29.464Z,6.07
2022-10-20T23:40:32.003Z,8.47
2022-10-20T23:45:36.994Z,2.57
2022-10-20T23:50:40.497Z,2.93
2022-10-20T23:55:43.362Z,1.93
